Time;durP1;ratioP1;P1;durP2;ratioP2;P2;SDS_P1;SDS_P2;PMS_P1;PMS_P2;Temp;Humidity;BMP_temperature;BMP_pressure;BME280_temperature;BME280_humidity;BME280_pressure;Samples;Min_cycle;Max_cycle;Signal;HPM_P1;HPM_P2
2022/05/17 00:02:12;;;;;;;9.53;4.70;;;13.60;99.90;;;;;;5052304;28;20253;-58
2022/05/17 00:04:38;;;;;;;11.60;5.03;;;13.50;99.90;;;;;;5052383;28;20218;-58
2022/05/17 00:07:05;;;;;;;15.03;4.67;;;13.40;99.90;;;;;;5052294;28;20189;-57
2022/05/17 00:09:31;;;;;;;14.37;5.17;;;13.40;99.90;;;;;;5051745;28;20173;-58
2022/05/17 00:11:59;;;;;;;13.37;5.50;;;13.40;99.90;;;;;;5052302;28;20214;-57
2022/05/17 00:14:24;;;;;;;10.30;4.33;;;13.30;99.90;;;;;;5052077;28;20194;-58
2022/05/17 00:16:51;;;;;;;9.83;5.10;;;13.10;99.90;;;;;;5051894;28;20547;-58
2022/05/17 00:19:19;;;;;;;19.87;5.23;;;13.10;99.90;;;;;;5050819;28;20214;-59
2022/05/17 00:21:46;;;;;;;12.27;5.40;;;13.00;99.90;;;;;;5051766;28;20178;-57
2022/05/17 00:24:13;;;;;;;12.60;5.50;;;12.90;99.90;;;;;;5051917;28;20186;-58
2022/05/17 00:26:39;;;;;;;16.23;5.70;;;12.90;99.90;;;;;;5051804;28;20183;-58
2022/05/17 00:29:05;;;;;;;13.50;5.37;;;12.90;99.90;;;;;;5052370;28;20232;-58
2022/05/17 00:31:33;;;;;;;13.00;5.60;;;13.00;99.90;;;;;;5051804;28;20717;-58
2022/05/17 00:33:58;;;;;;;9.93;5.00;;;13.00;99.90;;;;;;5052242;28;20177;-58
2022/05/17 00:36:24;;;;;;;9.23;5.50;;;12.90;99.90;;;;;;5051613;28;20620;-58
2022/05/17 00:38:50;;;;;;;11.53;5.03;;;13.00;99.90;;;;;;5051599;28;20225;-58
2022/05/17 00:41:16;;;;;;;11.90;5.23;;;13.10;99.90;;;;;;5051549;28;20190;-63
2022/05/17 00:46:42;;;;;;;11.93;5.60;;;13.10;99.90;;;;;;5051395;28;20247;-58
2022/05/17 00:49:12;;;;;;;11.27;5.23;;;13.20;99.90;;;;;;5052054;28;20198;-58
2022/05/17 00:51:41;;;;;;;12.50;5.63;;;13.20;99.90;;;;;;5051335;28;20198;-58
2022/05/17 00:54:11;;;;;;;12.33;5.63;;;13.10;99.90;;;;;;5051430;28;20588;-58
2022/05/17 00:56:49;;;;;;;12.03;5.33;;;13.00;99.90;;;;;;5051400;28;20177;-59
2022/05/17 00:59:15;;;;;;;10.63;5.30;;;12.90;99.90;;;;;;5051914;28;20253;-58
2022/05/17 01:01:41;;;;;;;10.47;5.50;;;12.70;99.90;;;;;;5051164;28;20263;-58
2022/05/17 01:04:23;;;;;;;12.43;5.97;;;12.70;99.90;;;;;;5051771;28;20184;-58
2022/05/17 01:07:12;;;;;;;18.67;5.73;;;12.70;99.90;;;;;;5051514;28;20207;-57
2022/05/17 01:09:38;;;;;;;13.40;5.30;;;12.60;99.90;;;;;;5051015;28;20616;-58
2022/05/17 01:12:04;;;;;;;19.33;6.10;;;12.60;99.90;;;;;;5051482;28;20217;-58
2022/05/17 01:17:14;;;;;;;13.90;6.30;;;12.40;99.90;;;;;;5051685;28;20227;-58
2022/05/17 01:19:42;;;;;;;14.93;5.47;;;12.30;99.90;;;;;;5050699;28;20189;-58
2022/05/17 01:22:08;;;;;;;15.10;5.43;;;12.30;99.90;;;;;;5051251;28;20195;-58
2022/05/17 01:24:35;;;;;;;14.93;5.87;;;12.20;99.90;;;;;;5050977;28;20173;-58
2022/05/17 01:27:19;;;;;;;11.67;5.70;;;12.20;99.90;;;;;;5051202;28;20182;-58
2022/05/17 01:29:47;;;;;;;12.07;6.07;;;12.10;99.90;;;;;;5051371;28;20535;-58
2022/05/17 01:32:14;;;;;;;15.63;6.53;;;12.10;99.90;;;;;;5051360;28;20248;-58
2022/05/17 01:34:41;;;;;;;11.50;5.73;;;12.10;99.90;;;;;;5051200;28;20213;-58
2022/05/17 01:37:08;;;;;;;19.33;6.10;;;12.20;99.90;;;;;;5050848;28;20199;-58
2022/05/17 01:39:35;;;;;;;10.77;4.93;;;12.30;99.90;;;;;;5050585;28;20201;-58
2022/05/17 01:42:01;;;;;;;13.33;6.00;;;12.30;99.90;;;;;;5051256;28;20596;-57
2022/05/17 01:44:27;;;;;;;8.97;5.40;;;12.30;99.90;;;;;;5051532;28;20278;-58
2022/05/17 01:46:53;;;;;;;12.03;5.60;;;12.30;99.90;;;;;;5051120;28;20278;-59
2022/05/17 01:49:19;;;;;;;13.03;5.10;;;12.50;99.90;;;;;;5051508;28;20266;-64
2022/05/17 01:51:45;;;;;;;13.93;5.80;;;12.50;99.90;;;;;;5051181;28;20209;-58
2022/05/17 01:54:10;;;;;;;11.17;5.23;;;12.50;99.90;;;;;;5033176;28;20213;-57
2022/05/17 01:56:36;;;;;;;11.37;5.00;;;12.50;99.90;;;;;;5050878;28;20585;-57
2022/05/17 01:59:02;;;;;;;10.33;5.30;;;12.50;99.90;;;;;;5051291;28;20541;-58
2022/05/17 02:01:28;;;;;;;12.07;5.40;;;12.50;99.90;;;;;;5050348;28;20332;-58
2022/05/17 02:03:53;;;;;;;19.77;6.07;;;12.50;99.90;;;;;;5051324;28;20221;-57
2022/05/17 02:06:20;;;;;;;11.03;5.27;;;12.40;99.90;;;;;;5050767;28;20607;-64
2022/05/17 02:08:46;;;;;;;11.33;4.70;;;12.40;99.90;;;;;;5053625;28;20585;-58
2022/05/17 02:11:12;;;;;;;12.93;5.20;;;12.40;99.90;;;;;;5054647;28;20217;-58
2022/05/17 02:13:41;;;;;;;13.43;5.50;;;12.40;99.90;;;;;;5054587;28;20289;-58
2022/05/17 02:16:08;;;;;;;12.67;5.23;;;12.40;99.90;;;;;;5054571;28;20190;-58
2022/05/17 02:18:35;;;;;;;13.70;5.23;;;12.40;99.90;;;;;;5054043;28;20186;-59
2022/05/17 02:21:01;;;;;;;8.63;4.63;;;12.40;99.90;;;;;;5054320;28;20563;-58
2022/05/17 02:23:27;;;;;;;9.43;4.73;;;12.40;99.90;;;;;;5053670;28;20189;-58
2022/05/17 02:25:53;;;;;;;15.93;5.27;;;12.40;99.90;;;;;;5054494;28;20266;-58
2022/05/17 02:28:19;;;;;;;13.80;4.97;;;12.40;99.90;;;;;;5054142;28;20182;-58
2022/05/17 02:30:45;;;;;;;14.43;4.70;;;12.40;99.90;;;;;;5054123;28;20197;-58
2022/05/17 02:33:12;;;;;;;12.40;4.57;;;12.40;99.90;;;;;;5054046;28;20194;-57
2022/05/17 02:35:38;;;;;;;14.10;4.73;;;12.40;99.90;;;;;;5054031;28;20179;-57
2022/05/17 02:38:04;;;;;;;13.07;4.87;;;12.30;99.90;;;;;;5053925;28;20182;-58
2022/05/17 02:40:30;;;;;;;10.40;4.43;;;12.30;99.90;;;;;;5053682;28;20182;-58
2022/05/17 02:42:56;;;;;;;10.87;4.97;;;12.30;99.90;;;;;;5053636;28;20193;-58
2022/05/17 02:45:22;;;;;;;9.10;4.57;;;12.30;99.90;;;;;;5053810;28;20236;-63
2022/05/17 02:47:48;;;;;;;13.77;5.00;;;12.20;99.90;;;;;;5053980;28;20257;-58
2022/05/17 02:50:14;;;;;;;15.33;4.60;;;12.20;99.90;;;;;;5054025;28;20501;-58
2022/05/17 02:52:40;;;;;;;13.10;4.60;;;12.20;99.90;;;;;;5053400;28;20248;-58
2022/05/17 02:55:07;;;;;;;11.97;4.33;;;12.10;99.90;;;;;;5053040;28;20671;-59
2022/05/17 02:57:33;;;;;;;13.87;4.67;;;12.10;99.90;;;;;;5053175;28;20190;-58
2022/05/17 02:59:59;;;;;;;13.83;4.70;;;12.00;99.90;;;;;;5053469;28;20267;-59
2022/05/17 03:02:25;;;;;;;17.80;5.17;;;12.00;99.90;;;;;;5052609;28;20261;-58
2022/05/17 03:04:51;;;;;;;25.63;6.00;;;12.00;99.90;;;;;;5053329;28;20197;-60
2022/05/17 03:07:17;;;;;;;17.77;5.30;;;12.00;99.90;;;;;;5053434;28;20178;-58
2022/05/17 03:09:42;;;;;;;20.93;5.23;;;11.90;99.90;;;;;;5052766;28;20197;-58
2022/05/17 03:12:09;;;;;;;15.87;4.93;;;12.00;99.90;;;;;;5053260;28;20319;-59
2022/05/17 03:14:35;;;;;;;6.43;3.90;;;12.00;99.90;;;;;;5053122;28;20177;-58
2022/05/17 03:17:07;;;;;;;14.17;5.63;;;12.10;99.90;;;;;;5053031;28;20180;-59
2022/05/17 03:19:33;;;;;;;7.30;4.97;;;12.10;99.90;;;;;;5051754;28;20568;-58
2022/05/17 03:21:59;;;;;;;17.13;5.77;;;12.10;99.90;;;;;;5053128;28;20193;-58
2022/05/17 03:24:25;;;;;;;10.97;5.13;;;12.10;99.90;;;;;;5052261;28;20331;-59
2022/05/17 03:26:51;;;;;;;13.10;5.80;;;12.10;99.90;;;;;;5053178;28;20193;-58
2022/05/17 03:29:16;;;;;;;12.60;5.73;;;12.10;99.90;;;;;;5052724;28;20655;-58
2022/05/17 03:31:42;;;;;;;13.43;5.43;;;12.10;99.90;;;;;;5052580;28;20225;-59
2022/05/17 03:34:09;;;;;;;14.53;5.97;;;12.00;99.90;;;;;;5034593;28;20546;-57
2022/05/17 03:36:35;;;;;;;13.23;6.43;;;12.00;99.90;;;;;;5052847;28;20201;-57
2022/05/17 03:39:00;;;;;;;13.80;6.20;;;12.00;99.90;;;;;;5034676;28;20627;-57
2022/05/17 03:41:26;;;;;;;8.07;5.40;;;12.10;99.90;;;;;;5052028;28;20250;-57
2022/05/17 03:43:52;;;;;;;9.17;5.03;;;12.10;99.90;;;;;;5034354;28;20263;-57
2022/05/17 03:46:18;;;;;;;15.67;5.90;;;12.20;99.90;;;;;;5052778;28;20192;-58
2022/05/17 03:48:44;;;;;;;26.87;6.33;;;12.20;99.90;;;;;;5052330;28;20189;-59
2022/05/17 03:51:15;;;;;;;25.03;6.20;;;12.30;99.90;;;;;;5034616;28;20217;-58
2022/05/17 03:53:41;;;;;;;21.17;6.50;;;12.20;99.90;;;;;;5052113;28;20176;-59
2022/05/17 03:56:07;;;;;;;19.83;5.30;;;12.30;99.90;;;;;;5052183;28;20272;-59
2022/05/17 03:58:33;;;;;;;25.00;6.03;;;12.30;99.90;;;;;;5052140;28;20273;-60
2022/05/17 04:00:59;;;;;;;13.90;5.17;;;12.30;99.90;;;;;;5051937;28;20225;-59
2022/05/17 04:03:25;;;;;;;17.23;5.60;;;12.40;99.90;;;;;;5052380;28;20227;-59
2022/05/17 04:05:50;;;;;;;12.50;6.33;;;12.40;99.90;;;;;;5034008;28;20182;-59
2022/05/17 04:08:16;;;;;;;12.20;5.33;;;12.50;99.90;;;;;;5033914;28;20265;-58
2022/05/17 04:10:42;;;;;;;26.53;6.97;;;12.50;99.90;;;;;;5051594;28;20177;-58
2022/05/17 04:13:08;;;;;;;12.73;6.20;;;12.60;99.90;;;;;;5051842;28;20217;-58
2022/05/17 04:15:34;;;;;;;15.17;6.03;;;12.60;99.90;;;;;;5051881;28;20190;-57
2022/05/17 04:17:59;;;;;;;11.17;5.10;;;12.70;99.90;;;;;;5033858;28;20188;-60
2022/05/17 04:20:26;;;;;;;20.57;5.90;;;12.80;99.90;;;;;;5051816;28;20655;-61
2022/05/17 04:22:54;;;;;;;14.30;5.67;;;12.90;99.90;;;;;;5051359;28;20280;-59
2022/05/17 04:25:22;;;;;;;14.87;5.50;;;12.90;99.90;;;;;;5051627;28;20182;-60
2022/05/17 04:27:49;;;;;;;17.33;5.93;;;12.90;99.90;;;;;;5050890;28;20220;-59
2022/05/17 04:30:15;;;;;;;16.03;5.40;;;13.10;99.90;;;;;;5050880;28;20213;-61
2022/05/17 04:32:42;;;;;;;8.53;4.43;;;13.20;99.90;;;;;;5050418;28;20223;-60
2022/05/17 04:35:09;;;;;;;22.23;5.20;;;13.30;99.90;;;;;;5032748;28;20185;-59
2022/05/17 04:37:36;;;;;;;16.97;5.13;;;13.50;99.90;;;;;;5050664;28;20182;-61
2022/05/17 04:40:08;;;;;;;20.50;5.33;;;13.70;99.90;;;;;;5051311;28;20185;-61
2022/05/17 04:42:39;;;;;;;12.23;4.63;;;13.90;99.90;;;;;;5050380;28;20209;-59
2022/05/17 04:45:07;;;;;;;21.27;4.23;;;14.00;99.90;;;;;;5051222;28;20193;-60
2022/05/17 04:47:33;;;;;;;10.70;3.63;;;14.20;99.90;;;;;;5040399;28;20196;-61
2022/05/17 04:49:58;;;;;;;19.90;4.93;;;14.20;99.90;;;;;;5043684;28;20182;-60
2022/05/17 04:52:25;;;;;;;15.63;4.30;;;14.30;99.90;;;;;;5043655;28;20691;-60
2022/05/17 04:54:51;;;;;;;16.50;5.23;;;14.20;99.90;;;;;;5044430;28;20198;-63
2022/05/17 04:57:17;;;;;;;13.57;5.30;;;14.20;99.90;;;;;;5048096;28;20194;-57
2022/05/17 04:59:43;;;;;;;11.53;4.47;;;14.30;99.90;;;;;;5004351;28;20225;-58
2022/05/17 05:02:10;;;;;;;11.47;4.67;;;14.40;99.90;;;;;;5043973;28;20277;-56
2022/05/17 05:04:38;;;;;;;9.90;3.77;;;14.40;99.90;;;;;;5019122;28;20289;-63
2022/05/17 05:07:07;;;;;;;7.63;4.30;;;14.50;99.90;;;;;;5049471;28;20195;-62
2022/05/17 05:09:33;;;;;;;15.50;5.33;;;14.60;99.90;;;;;;5038301;28;20187;-62
2022/05/17 05:11:59;;;;;;;10.20;4.67;;;14.90;99.90;;;;;;5037438;28;20763;-61
2022/05/17 05:14:26;;;;;;;12.67;5.60;;;15.10;99.90;;;;;;5037804;28;20222;-56
2022/05/17 05:16:52;;;;;;;12.03;5.00;;;15.20;99.90;;;;;;5042737;28;20656;-58
2022/05/17 05:19:17;;;;;;;14.53;5.87;;;15.40;99.90;;;;;;5040041;28;20270;-60
2022/05/17 05:21:43;;;;;;;18.67;5.47;;;15.50;99.90;;;;;;5032006;28;20278;-59
2022/05/17 05:24:11;;;;;;;15.47;5.87;;;15.30;99.90;;;;;;5069875;28;20185;-63
2022/05/17 05:26:38;;;;;;;12.67;5.57;;;15.30;99.90;;;;;;5070124;28;20601;-64
2022/05/17 05:29:04;;;;;;;13.43;6.10;;;15.30;99.90;;;;;;5069996;28;20259;-61
2022/05/17 05:31:30;;;;;;;18.73;6.47;;;15.20;99.90;;;;;;5051974;28;20232;-61
2022/05/17 05:33:55;;;;;;;15.90;5.67;;;15.20;99.90;;;;;;5071003;28;20186;-60
2022/05/17 05:36:22;;;;;;;14.17;5.37;;;15.10;99.90;;;;;;5070558;28;20626;-60
2022/05/17 05:38:48;;;;;;;15.20;5.80;;;15.20;99.90;;;;;;5069388;28;20309;-62
2022/05/17 05:41:15;;;;;;;13.07;5.03;;;15.30;99.90;;;;;;5032454;28;20228;-62
2022/05/17 05:43:41;;;;;;;11.73;6.10;;;15.40;99.90;;;;;;5053306;28;20201;-62
2022/05/17 05:46:07;;;;;;;12.10;6.23;;;15.50;99.90;;;;;;5052589;28;20195;-64
2022/05/17 05:48:33;;;;;;;17.43;5.60;;;15.50;99.90;;;;;;5052197;28;20189;-61
2022/05/17 05:50:59;;;;;;;19.33;5.77;;;15.50;99.90;;;;;;5053135;28;20266;-60
2022/05/17 05:53:25;;;;;;;19.10;6.23;;;15.60;99.90;;;;;;5052386;28;20540;-60
2022/05/17 05:55:57;;;;;;;12.53;5.40;;;15.50;99.90;;;;;;5051747;28;20228;-61
2022/05/17 05:58:26;;;;;;;17.00;6.37;;;15.80;99.90;;;;;;5052158;28;20260;-61
2022/05/17 06:00:52;;;;;;;18.23;5.67;;;15.90;99.90;;;;;;5052483;28;20244;-61
2022/05/17 06:03:17;;;;;;;21.67;5.50;;;15.90;99.90;;;;;;5035987;28;20210;-59
2022/05/17 06:05:43;;;;;;;14.73;5.80;;;15.90;99.90;;;;;;5053636;28;20187;-61
2022/05/17 06:08:13;;;;;;;14.97;5.63;;;16.10;99.90;;;;;;5053458;28;20185;-60
2022/05/17 06:10:43;;;;;;;14.83;6.03;;;16.10;99.90;;;;;;5053062;28;20177;-61
2022/05/17 06:13:16;;;;;;;19.70;6.23;;;16.30;99.90;;;;;;5053660;28;20316;-61
2022/05/17 06:15:43;;;;;;;21.20;6.97;;;16.50;99.90;;;;;;5035092;28;20635;-60
2022/05/17 06:18:09;;;;;;;22.93;6.93;;;16.60;99.90;;;;;;5052761;28;20667;-61
2022/05/17 06:20:36;;;;;;;19.00;6.80;;;16.70;99.90;;;;;;5052573;28;20190;-56
2022/05/17 06:23:03;;;;;;;15.93;6.57;;;16.90;99.90;;;;;;5053415;28;20187;-56
2022/05/17 06:25:29;;;;;;;18.47;7.20;;;16.90;99.90;;;;;;5052777;28;20206;-59
2022/05/17 06:27:55;;;;;;;12.60;5.50;;;17.00;99.90;;;;;;5053462;28;20584;-55
2022/05/17 06:30:21;;;;;;;20.70;5.70;;;17.00;99.90;;;;;;5035034;28;20186;-63
2022/05/17 06:32:47;;;;;;;17.87;7.77;;;17.10;99.90;;;;;;5053035;28;20238;-64
2022/05/17 06:35:13;;;;;;;14.97;5.70;;;17.10;99.90;;;;;;5035490;28;20217;-62
2022/05/17 06:37:39;;;;;;;10.60;4.77;;;17.10;99.90;;;;;;5052339;28;20273;-61
2022/05/17 06:40:06;;;;;;;14.97;4.80;;;17.10;99.70;;;;;;5053548;28;20183;-66
2022/05/17 06:42:32;;;;;;;13.57;5.50;;;17.10;99.50;;;;;;5034742;28;20190;-58
2022/05/17 06:44:58;;;;;;;12.40;4.80;;;17.20;99.70;;;;;;5034933;28;20186;-60
2022/05/17 06:47:25;;;;;;;9.93;4.87;;;17.20;99.60;;;;;;5052948;28;20174;-60
2022/05/17 06:49:52;;;;;;;15.77;4.53;;;17.20;99.80;;;;;;5034827;28;20650;-59
2022/05/17 06:52:18;;;;;;;12.47;4.40;;;17.40;99.40;;;;;;5051633;28;20220;-58
2022/05/17 06:54:44;;;;;;;8.47;4.17;;;17.50;98.80;;;;;;5050476;28;20213;-58
2022/05/17 06:57:12;;;;;;;9.57;4.67;;;17.50;98.60;;;;;;5034831;28;20275;-59
2022/05/17 06:59:39;;;;;;;9.20;3.97;;;17.40;98.50;;;;;;5052812;28;20177;-58
2022/05/17 07:02:06;;;;;;;21.80;5.10;;;17.50;98.40;;;;;;5052538;28;20294;-59
2022/05/17 07:04:33;;;;;;;11.97;4.43;;;17.50;98.30;;;;;;5034500;28;20189;-59
2022/05/17 07:06:59;;;;;;;10.30;3.53;;;17.60;98.30;;;;;;5051124;28;20241;-61
2022/05/17 07:09:26;;;;;;;9.43;3.30;;;17.70;97.80;;;;;;5051152;28;20179;-60
2022/05/17 07:14:37;;;;;;;8.57;3.30;;;17.90;96.90;;;;;;5050530;28;20220;-59
2022/05/17 07:17:05;;;;;;;12.47;3.23;;;17.90;95.80;;;;;;5032275;28;20516;-60
2022/05/17 07:19:33;;;;;;;12.87;3.53;;;17.90;95.50;;;;;;5050471;28;20186;-59
2022/05/17 07:22:00;;;;;;;14.30;3.50;;;18.00;95.90;;;;;;5050981;28;20206;-59
2022/05/17 07:24:26;;;;;;;6.50;2.93;;;18.20;95.20;;;;;;5034281;28;20185;-59
2022/05/17 07:26:52;;;;;;;8.70;3.10;;;18.30;94.10;;;;;;5051766;28;20186;-59
2022/05/17 07:29:18;;;;;;;5.67;2.20;;;18.50;93.90;;;;;;5051878;28;20204;-59
2022/05/17 07:31:43;;;;;;;5.30;2.73;;;18.50;93.00;;;;;;5051480;28;20214;-59
2022/05/17 07:34:09;;;;;;;6.63;2.23;;;18.40;93.60;;;;;;5052083;28;20174;-57
2022/05/17 07:36:35;;;;;;;10.93;2.97;;;18.40;93.50;;;;;;5051470;28;20217;-59
2022/05/17 07:39:00;;;;;;;6.67;2.30;;;18.50;92.80;;;;;;5052018;28;20178;-59
2022/05/17 07:41:26;;;;;;;6.83;2.50;;;18.60;92.40;;;;;;5051828;28;20582;-59
2022/05/17 07:43:52;;;;;;;9.07;3.43;;;18.60;91.70;;;;;;5033840;28;20190;-58
2022/05/17 07:46:17;;;;;;;7.83;2.53;;;18.70;91.50;;;;;;5051107;28;20190;-58
2022/05/17 07:48:43;;;;;;;13.57;3.90;;;18.90;91.20;;;;;;5051944;28;20261;-58
2022/05/17 07:51:09;;;;;;;12.47;2.97;;;18.80;90.20;;;;;;5051413;28;20183;-59
2022/05/17 07:53:36;;;;;;;10.27;3.17;;;19.00;90.80;;;;;;5051464;28;20266;-58
2022/05/17 07:56:04;;;;;;;6.93;3.67;;;19.10;90.90;;;;;;5033244;28;20182;-60
2022/05/17 07:58:30;;;;;;;8.30;2.97;;;19.20;90.90;;;;;;5033746;28;20207;-63
2022/05/17 08:00:55;;;;;;;9.70;3.23;;;19.10;90.00;;;;;;5051141;28;20187;-58
2022/05/17 08:03:21;;;;;;;5.18;2.60;;;19.10;90.00;;;;;;5052171;28;20171;-58
2022/05/17 08:05:48;;;;;;;9.93;2.95;;;19.20;90.40;;;;;;5031735;28;20368;-59
2022/05/17 08:08:13;;;;;;;8.60;2.53;;;19.20;89.50;;;;;;5051334;28;20274;-60
2022/05/17 08:10:40;;;;;;;10.50;2.88;;;19.30;89.50;;;;;;5051159;28;20394;-57
2022/05/17 08:13:07;;;;;;;15.70;3.42;;;19.20;88.70;;;;;;5051242;28;20226;-60
2022/05/17 08:15:33;;;;;;;8.73;2.50;;;19.10;87.70;;;;;;5051135;28;20601;-60
2022/05/17 08:18:01;;;;;;;9.52;2.40;;;19.20;87.90;;;;;;5051235;28;20194;-61
2022/05/17 08:20:28;;;;;;;9.80;2.75;;;19.30;86.60;;;;;;5051364;28;20209;-60
2022/05/17 08:22:54;;;;;;;7.93;2.60;;;19.40;86.50;;;;;;5050664;28;20187;-58
2022/05/17 08:28:07;;;;;;;10.02;2.83;;;19.40;84.60;;;;;;5051062;28;20165;-58
2022/05/17 08:30:33;;;;;;;15.77;2.17;;;19.50;84.80;;;;;;5050885;28;20186;-60
2022/05/17 08:33:17;;;;;;;8.80;2.80;;;19.60;81.50;;;;;;5050716;28;20289;-60
2022/05/17 08:36:00;;;;;;;9.07;2.33;;;19.70;82.70;;;;;;5032537;28;20182;-59
2022/05/17 08:38:30;;;;;;;5.22;2.05;;;19.90;81.50;;;;;;5051109;28;20162;-58
2022/05/17 08:41:10;;;;;;;8.65;2.38;;;19.90;80.70;;;;;;5050970;28;20178;-61
2022/05/17 08:44:02;;;;;;;5.95;1.70;;;20.10;81.00;;;;;;5030548;28;20170;-58
2022/05/17 08:46:47;;;;;;;7.05;2.03;;;20.20;80.00;;;;;;5030593;28;20269;-59
2022/05/17 08:49:29;;;;;;;12.38;2.80;;;20.20;79.40;;;;;;5030802;28;20169;-60
2022/05/17 08:52:01;;;;;;;6.63;2.35;;;20.20;78.80;;;;;;5030183;28;20533;-59
2022/05/17 08:54:30;;;;;;;6.07;2.25;;;20.30;78.80;;;;;;5030983;28;20207;-59
2022/05/17 08:57:05;;;;;;;5.03;2.50;;;20.40;78.30;;;;;;5030580;28;20321;-60
2022/05/17 08:59:35;;;;;;;9.48;2.13;;;20.40;78.10;;;;;;5029884;28;20190;-63
2022/05/17 09:02:10;;;;;;;6.10;2.60;;;20.40;77.90;;;;;;5030156;28;20234;-58
2022/05/17 09:05:12;;;;;;;8.65;2.58;;;20.50;77.90;;;;;;5030613;28;20200;-58
2022/05/17 09:07:41;;;;;;;12.02;3.40;;;20.80;78.40;;;;;;5029831;28;20262;-60
2022/05/17 09:10:10;;;;;;;16.50;3.70;;;21.00;78.70;;;;;;5030395;28;20639;-60
2022/05/17 09:12:57;;;;;;;10.70;3.55;;;21.10;77.40;;;;;;5043512;28;20634;-58
2022/05/17 09:15:22;;;;;;;8.68;2.55;;;21.20;77.20;;;;;;5051331;28;20261;-59
2022/05/17 09:17:48;;;;;;;11.10;2.50;;;21.50;76.20;;;;;;5053448;28;20658;-60
2022/05/17 09:20:18;;;;;;;9.13;2.50;;;21.60;75.20;;;;;;5054239;28;20182;-59
2022/05/17 09:22:44;;;;;;;4.60;2.40;;;21.70;75.30;;;;;;5053927;28;20247;-59
2022/05/17 09:25:25;;;;;;;6.35;2.72;;;21.50;73.50;;;;;;5054030;28;20208;-58
2022/05/17 09:27:53;;;;;;;6.28;2.40;;;21.60;72.80;;;;;;5054484;28;20212;-60
2022/05/17 09:30:21;;;;;;;7.95;3.00;;;21.60;72.10;;;;;;5054991;28;20270;-58
2022/05/17 09:32:48;;;;;;;12.93;7.38;;;21.80;72.40;;;;;;5053821;28;20202;-60
2022/05/17 09:35:22;;;;;;;8.80;2.92;;;21.80;70.70;;;;;;5053902;28;20194;-59
2022/05/17 09:37:53;;;;;;;6.05;2.05;;;22.10;69.20;;;;;;5053973;28;20187;-61
2022/05/17 09:40:32;;;;;;;7.15;2.78;;;22.30;68.60;;;;;;5036530;28;20274;-58
2022/05/17 09:42:58;;;;;;;8.75;2.72;;;22.30;67.60;;;;;;5053708;28;20216;-61
2022/05/17 09:46:01;;;;;;;11.68;2.80;;;22.40;68.50;;;;;;5054187;28;20642;-58
2022/05/17 09:48:30;;;;;;;9.18;2.28;;;22.50;67.00;;;;;;5054089;28;20162;-60
2022/05/17 09:53:45;;;;;;;8.85;3.53;;;22.40;65.40;;;;;;5053023;28;20611;-59
2022/05/17 09:56:11;;;;;;;7.25;2.30;;;22.50;65.90;;;;;;5054019;28;20515;-57
2022/05/17 09:58:42;;;;;;;10.25;3.50;;;22.70;65.70;;;;;;5053218;28;20183;-58
2022/05/17 10:01:22;;;;;;;6.22;2.30;;;22.90;66.70;;;;;;5035377;28;20266;-59
2022/05/17 10:04:09;;;;;;;13.50;2.30;;;22.80;64.40;;;;;;5052675;28;20170;-60
2022/05/17 10:06:37;;;;;;;12.10;2.30;;;22.80;64.10;;;;;;5053046;28;20604;-60
2022/05/17 10:09:07;;;;;;;6.97;2.35;;;23.00;63.90;;;;;;5053454;28;20507;-61
2022/05/17 10:11:40;;;;;;;10.55;3.30;;;23.10;63.90;;;;;;5030817;28;20226;-57
2022/05/17 10:14:27;;;;;;;10.65;2.65;;;23.00;65.00;;;;;;5033483;28;20209;-59
2022/05/17 10:17:09;;;;;;;6.63;2.72;;;23.00;64.70;;;;;;5033284;28;20171;-59
2022/05/17 10:19:53;;;;;;;12.27;3.08;;;22.90;63.90;;;;;;5014993;28;20186;-60
2022/05/17 10:22:22;;;;;;;8.13;2.90;;;23.00;64.80;;;;;;5042158;28;20175;-60
2022/05/17 10:24:52;;;;;;;10.68;2.42;;;23.10;64.80;;;;;;5052482;28;20186;-59
2022/05/17 10:27:33;;;;;;;14.75;2.67;;;23.00;63.80;;;;;;5053235;28;20194;-60
2022/05/17 10:30:25;;;;;;;8.85;3.22;;;23.10;64.20;;;;;;5052786;28;20232;-59
2022/05/17 10:33:02;;;;;;;18.02;3.95;;;23.30;63.00;;;;;;5043053;28;20265;-60
2022/05/17 10:35:47;;;;;;;5.05;2.33;;;23.60;64.20;;;;;;5052409;28;20197;-59
2022/05/17 10:38:16;;;;;;;9.48;2.17;;;23.50;63.20;;;;;;5053186;28;20174;-60
2022/05/17 10:40:45;;;;;;;14.15;2.33;;;23.50;62.70;;;;;;5034953;28;20181;-59
2022/05/17 10:43:39;;;;;;;7.05;2.53;;;23.30;62.80;;;;;;5052450;28;20194;-59
2022/05/17 10:46:05;;;;;;;11.98;2.95;;;23.30;62.30;;;;;;5034560;28;20636;-59
2022/05/17 10:49:12;;;;;;;9.05;2.83;;;23.40;63.70;;;;;;5052741;28;20182;-63
2022/05/17 10:51:41;;;;;;;7.60;2.00;;;23.90;61.60;;;;;;5051015;28;20210;-59
2022/05/17 10:54:19;;;;;;;8.98;2.88;;;23.70;61.40;;;;;;5052645;28;20193;-60
2022/05/17 10:56:54;;;;;;;7.80;2.83;;;24.20;63.90;;;;;;5052246;28;20214;-59
2022/05/17 10:59:31;;;;;;;6.95;2.40;;;24.70;61.30;;;;;;5052606;28;20177;-59
2022/05/17 11:02:13;;;;;;;7.57;2.70;;;24.70;61.20;;;;;;5051991;28;20707;-58
2022/05/17 11:05:12;;;;;;;4.05;2.03;;;24.70;58.30;;;;;;5051835;28;20277;-61
2022/05/17 11:08:02;;;;;;;8.60;2.13;;;24.80;59.00;;;;;;5052010;28;20665;-59
2022/05/17 11:10:42;;;;;;;7.18;2.00;;;25.10;59.60;;;;;;5052621;28;20166;-58
2022/05/17 11:13:11;;;;;;;12.77;3.67;;;25.70;58.50;;;;;;5052208;28;20206;-60
2022/05/17 11:15:43;;;;;;;15.30;3.00;;;26.00;58.70;;;;;;5051547;28;20197;-58
2022/05/17 11:18:20;;;;;;;6.28;2.85;;;26.20;58.60;;;;;;5051713;28;20656;-57
2022/05/17 11:21:08;;;;;;;10.48;2.88;;;26.30;57.80;;;;;;5051591;28;20171;-58
2022/05/17 11:23:51;;;;;;;22.42;3.33;;;27.00;58.80;;;;;;5051537;28;20643;-60
2022/05/17 11:26:19;;;;;;;17.45;4.75;;;29.00;58.10;;;;;;5051811;28;20179;-58
2022/05/17 11:28:56;;;;;;;15.18;4.05;;;30.30;51.80;;;;;;5051097;28;20209;-59
2022/05/17 11:32:19;;;;;;;7.47;2.40;;;31.40;50.00;;;;;;5052011;28;20217;-60
2022/05/17 11:34:45;;;;;;;5.75;2.13;;;31.90;46.90;;;;;;4934896;29;20331;-60
2022/05/17 11:37:45;;;;;;;13.18;2.38;;;31.50;43.70;;;;;;4951800;28;20210;-60
2022/05/17 11:40:31;;;;;;;7.32;2.60;;;32.80;44.80;;;;;;4977586;28;20663;-60
2022/05/17 11:45:55;;;;;;;6.80;1.95;;;34.00;41.20;;;;;;5034623;28;20336;-62
2022/05/17 11:48:24;;;;;;;20.25;4.88;;;34.40;39.30;;;;;;5046838;28;20209;-60
2022/05/17 11:50:57;;;;;;;6.55;2.28;;;35.00;39.90;;;;;;5048932;28;20222;-61
2022/05/17 11:53:22;;;;;;;4.57;2.22;;;35.00;38.30;;;;;;5033503;28;20218;-60
2022/05/17 11:56:14;;;;;;;7.45;2.40;;;34.10;38.00;;;;;;5030915;28;20648;-60
2022/05/17 11:58:46;;;;;;;5.72;2.25;;;33.30;38.80;;;;;;5031409;28;20179;-59
2022/05/17 12:01:30;;;;;;;10.43;3.45;;;34.40;38.10;;;;;;5031102;28;20230;-59
2022/05/17 12:04:04;;;;;;;9.82;2.83;;;35.50;37.10;;;;;;5031636;28;20175;-59
2022/05/17 12:06:41;;;;;;;5.75;1.83;;;35.40;36.20;;;;;;5031466;28;20252;-59
2022/05/17 12:09:47;;;;;;;8.52;2.40;;;36.10;36.00;;;;;;5031975;28;20345;-60
2022/05/17 12:12:41;;;;;;;6.28;2.78;;;36.00;35.70;;;;;;5041743;28;20299;-60
2022/05/17 12:15:28;;;;;;;3.88;2.00;;;35.90;36.30;;;;;;5051603;28;20265;-60
2022/05/17 12:18:23;;;;;;;5.80;2.22;;;34.30;35.70;;;;;;5051091;28;20159;-59
2022/05/17 12:21:02;;;;;;;6.63;2.80;;;33.70;37.30;;;;;;5050702;28;20184;-60
2022/05/17 12:23:52;;;;;;;5.55;2.53;;;32.80;37.50;;;;;;5051349;28;20166;-60
2022/05/17 12:26:31;;;;;;;5.15;2.65;;;31.00;39.70;;;;;;5051006;28;20189;-60
2022/05/17 12:30:52;;;;;;;5.13;2.28;;;30.50;40.60;;;;;;5051641;28;20162;-60
2022/05/17 12:31:42;;;;;;;12.25;3.25;;;29.90;41.60;;;;;;5050164;28;20233;-59
2022/05/17 12:34:08;;;;;;;8.93;2.47;;;30.10;41.90;;;;;;5032766;28;20185;-62
2022/05/17 12:36:35;;;;;;;13.55;3.45;;;30.30;41.60;;;;;;5031693;28;20187;-60
2022/05/17 12:44:44;;;;;;;13.43;3.97;;;30.20;42.60;;;;;;5050808;28;20682;-61
2022/05/17 12:47:17;;;;;;;18.88;3.30;;;29.40;43.80;;;;;;5051176;28;20178;-59
2022/05/17 12:49:45;;;;;;;11.25;4.20;;;29.20;44.40;;;;;;5032454;28;20273;-60
2022/05/17 12:52:35;;;;;;;12.95;3.45;;;29.20;43.90;;;;;;5050288;28;20221;-60
2022/05/17 12:55:30;;;;;;;15.90;3.42;;;29.10;43.80;;;;;;5051133;28;20181;-60
2022/05/17 12:58:13;;;;;;;8.18;2.78;;;28.70;45.60;;;;;;5048533;28;20186;-59
2022/05/17 13:00:39;;;;;;;11.70;2.80;;;28.30;45.10;;;;;;5050574;28;20278;-60
2022/05/17 13:03:20;;;;;;;18.85;4.38;;;28.20;45.10;;;;;;5050620;28;20293;-60
2022/05/17 13:05:49;;;;;;;11.30;3.47;;;27.70;44.50;;;;;;5050537;28;20182;-60
2022/05/17 13:08:19;;;;;;;12.82;3.38;;;27.30;46.30;;;;;;5050521;28;20327;-61
2022/05/17 13:10:58;;;;;;;9.32;2.63;;;27.30;45.60;;;;;;5050896;28;20200;-60
2022/05/17 13:13:24;;;;;;;12.98;2.90;;;27.20;46.40;;;;;;5050304;28;20244;-60
2022/05/17 13:15:55;;;;;;;8.73;2.50;;;26.70;46.60;;;;;;5049707;28;20502;-61
2022/05/17 13:18:22;;;;;;;8.85;2.53;;;26.50;47.40;;;;;;5050347;28;20227;-59
2022/05/17 13:20:50;;;;;;;8.77;2.97;;;26.80;46.80;;;;;;5049795;28;20224;-60